sensor_id;sensor_type;location;lat;lon;timestamp;P1;durP1;ratioP1;P2;durP2;ratioP2
6529;SDS011;3298;42.688;23.366;2022-11-25T00:00:53;3.70;;;2.27;;
6529;SDS011;3298;42.688;23.366;2022-11-25T00:03:20;1.93;;;1.83;;
6529;SDS011;3298;42.688;23.366;2022-11-25T00:05:46;2.73;;;2.53;;
6529;SDS011;3298;42.688;23.366;2022-11-25T00:08:13;2.10;;;2.00;;
6529;SDS011;3298;42.688;23.366;2022-11-25T00:10:40;2.73;;;2.43;;
6529;SDS011;3298;42.688;23.366;2022-11-25T00:13:08;2.30;;;2.20;;
6529;SDS011;3298;42.688;23.366;2022-11-25T00:15:35;2.10;;;2.00;;
6529;SDS011;3298;42.688;23.366;2022-11-25T00:18:02;2.03;;;1.93;;
6529;SDS011;3298;42.688;23.366;2022-11-25T00:20:28;2.30;;;2.20;;
6529;SDS011;3298;42.688;23.366;2022-11-25T00:22:55;2.70;;;1.80;;
6529;SDS011;3298;42.688;23.366;2022-11-25T00:25:22;2.50;;;1.83;;
6529;SDS011;3298;42.688;23.366;2022-11-25T00:27:50;2.07;;;1.97;;
6529;SDS011;3298;42.688;23.366;2022-11-25T00:30:19;2.00;;;1.90;;
6529;SDS011;3298;42.688;23.366;2022-11-25T00:32:45;2.00;;;1.80;;
6529;SDS011;3298;42.688;23.366;2022-11-25T00:35:12;2.50;;;1.90;;
6529;SDS011;3298;42.688;23.366;2022-11-25T00:37:39;2.73;;;1.63;;
6529;SDS011;3298;42.688;23.366;2022-11-25T00:40:06;2.80;;;2.13;;
6529;SDS011;3298;42.688;23.366;2022-11-25T00:42:34;2.00;;;1.90;;
6529;SDS011;3298;42.688;23.366;2022-11-25T00:45:19;2.50;;;2.30;;
6529;SDS011;3298;42.688;23.366;2022-11-25T00:47:46;2.17;;;2.07;;
6529;SDS011;3298;42.688;23.366;2022-11-25T00:50:13;3.00;;;2.80;;
6529;SDS011;3298;42.688;23.366;2022-11-25T00:52:40;2.90;;;2.67;;
6529;SDS011;3298;42.688;23.366;2022-11-25T00:55:07;3.00;;;2.80;;
6529;SDS011;3298;42.688;23.366;2022-11-25T00:57:34;2.83;;;2.73;;
6529;SDS011;3298;42.688;23.366;2022-11-25T01:00:01;4.17;;;3.00;;
6529;SDS011;3298;42.688;23.366;2022-11-25T01:02:29;2.83;;;2.60;;
6529;SDS011;3298;42.688;23.366;2022-11-25T01:04:56;2.80;;;2.60;;
6529;SDS011;3298;42.688;23.366;2022-11-25T01:07:23;4.33;;;2.53;;
6529;SDS011;3298;42.688;23.366;2022-11-25T01:09:49;2.87;;;2.60;;
6529;SDS011;3298;42.688;23.366;2022-11-25T01:12:16;2.47;;;2.30;;
6529;SDS011;3298;42.688;23.366;2022-11-25T01:14:43;2.27;;;2.17;;
6529;SDS011;3298;42.688;23.366;2022-11-25T01:17:10;2.80;;;2.60;;
6529;SDS011;3298;42.688;23.366;2022-11-25T01:19:38;2.47;;;2.37;;
6529;SDS011;3298;42.688;23.366;2022-11-25T01:22:06;2.93;;;2.67;;
6529;SDS011;3298;42.688;23.366;2022-11-25T01:24:32;2.43;;;2.23;;
6529;SDS011;3298;42.688;23.366;2022-11-25T01:26:59;2.80;;;2.60;;
6529;SDS011;3298;42.688;23.366;2022-11-25T01:29:26;3.00;;;2.80;;
6529;SDS011;3298;42.688;23.366;2022-11-25T01:31:53;3.27;;;2.50;;
6529;SDS011;3298;42.688;23.366;2022-11-25T01:34:21;5.00;;;2.70;;
6529;SDS011;3298;42.688;23.366;2022-11-25T01:36:51;2.37;;;2.20;;
6529;SDS011;3298;42.688;23.366;2022-11-25T01:39:18;2.40;;;2.20;;
6529;SDS011;3298;42.688;23.366;2022-11-25T01:41:47;2.23;;;2.13;;
6529;SDS011;3298;42.688;23.366;2022-11-25T01:44:15;1.97;;;1.87;;
6529;SDS011;3298;42.688;23.366;2022-11-25T01:46:46;1.90;;;1.80;;
6529;SDS011;3298;42.688;23.366;2022-11-25T01:49:18;2.27;;;1.57;;
6529;SDS011;3298;42.688;23.366;2022-11-25T01:51:51;2.17;;;1.97;;
6529;SDS011;3298;42.688;23.366;2022-11-25T01:54:22;1.90;;;1.80;;
6529;SDS011;3298;42.688;23.366;2022-11-25T01:56:52;3.37;;;1.47;;
6529;SDS011;3298;42.688;23.366;2022-11-25T01:59:23;1.90;;;1.80;;
6529;SDS011;3298;42.688;23.366;2022-11-25T02:01:51;2.10;;;1.83;;
6529;SDS011;3298;42.688;23.366;2022-11-25T02:04:18;2.50;;;2.27;;
6529;SDS011;3298;42.688;23.366;2022-11-25T02:06:48;2.03;;;1.93;;
6529;SDS011;3298;42.688;23.366;2022-11-25T02:09:19;1.80;;;1.70;;
6529;SDS011;3298;42.688;23.366;2022-11-25T02:11:47;1.73;;;1.63;;
6529;SDS011;3298;42.688;23.366;2022-11-25T02:14:15;1.70;;;1.60;;
6529;SDS011;3298;42.688;23.366;2022-11-25T02:16:43;2.27;;;1.60;;
6529;SDS011;3298;42.688;23.366;2022-11-25T02:19:15;1.50;;;1.40;;
6529;SDS011;3298;42.688;23.366;2022-11-25T02:21:49;1.57;;;1.47;;
6529;SDS011;3298;42.688;23.366;2022-11-25T02:24:24;1.83;;;1.73;;
6529;SDS011;3298;42.688;23.366;2022-11-25T02:26:57;3.23;;;1.63;;
6529;SDS011;3298;42.688;23.366;2022-11-25T02:29:24;2.13;;;1.97;;
6529;SDS011;3298;42.688;23.366;2022-11-25T02:31:52;1.93;;;1.70;;
6529;SDS011;3298;42.688;23.366;2022-11-25T02:34:19;1.47;;;1.47;;
6529;SDS011;3298;42.688;23.366;2022-11-25T02:36:46;1.83;;;1.73;;
6529;SDS011;3298;42.688;23.366;2022-11-25T02:39:13;1.50;;;1.40;;
6529;SDS011;3298;42.688;23.366;2022-11-25T02:41:41;1.60;;;1.50;;
6529;SDS011;3298;42.688;23.366;2022-11-25T02:44:12;1.70;;;1.60;;
6529;SDS011;3298;42.688;23.366;2022-11-25T02:46:39;1.80;;;1.70;;
6529;SDS011;3298;42.688;23.366;2022-11-25T02:49:06;1.43;;;1.43;;
6529;SDS011;3298;42.688;23.366;2022-11-25T02:51:33;1.60;;;1.50;;
6529;SDS011;3298;42.688;23.366;2022-11-25T02:54:00;1.60;;;1.50;;
6529;SDS011;3298;42.688;23.366;2022-11-25T02:56:28;1.73;;;1.63;;
6529;SDS011;3298;42.688;23.366;2022-11-25T02:58:56;1.70;;;1.60;;
6529;SDS011;3298;42.688;23.366;2022-11-25T03:01:24;1.50;;;1.50;;
6529;SDS011;3298;42.688;23.366;2022-11-25T03:03:51;1.60;;;1.50;;
6529;SDS011;3298;42.688;23.366;2022-11-25T03:06:18;2.93;;;1.80;;
6529;SDS011;3298;42.688;23.366;2022-11-25T03:08:45;2.27;;;1.80;;
6529;SDS011;3298;42.688;23.366;2022-11-25T03:11:12;2.27;;;1.67;;
6529;SDS011;3298;42.688;23.366;2022-11-25T03:13:39;1.93;;;1.70;;
6529;SDS011;3298;42.688;23.366;2022-11-25T03:16:06;1.50;;;1.47;;
6529;SDS011;3298;42.688;23.366;2022-11-25T03:18:34;2.87;;;1.83;;
6529;SDS011;3298;42.688;23.366;2022-11-25T03:21:02;1.90;;;1.80;;
6529;SDS011;3298;42.688;23.366;2022-11-25T03:23:29;1.83;;;1.70;;
6529;SDS011;3298;42.688;23.366;2022-11-25T03:25:55;2.00;;;1.87;;
6529;SDS011;3298;42.688;23.366;2022-11-25T03:28:22;4.40;;;1.80;;
6529;SDS011;3298;42.688;23.366;2022-11-25T03:30:49;2.97;;;1.87;;
6529;SDS011;3298;42.688;23.366;2022-11-25T03:33:16;2.57;;;2.37;;
6529;SDS011;3298;42.688;23.366;2022-11-25T03:35:44;2.67;;;2.43;;
6529;SDS011;3298;42.688;23.366;2022-11-25T03:38:13;2.20;;;2.00;;
6529;SDS011;3298;42.688;23.366;2022-11-25T03:40:39;3.33;;;2.13;;
6529;SDS011;3298;42.688;23.366;2022-11-25T03:43:06;1.93;;;1.83;;
6529;SDS011;3298;42.688;23.366;2022-11-25T03:45:33;1.80;;;1.70;;
6529;SDS011;3298;42.688;23.366;2022-11-25T03:48:00;2.40;;;2.23;;
6529;SDS011;3298;42.688;23.366;2022-11-25T03:50:27;2.23;;;2.13;;
6529;SDS011;3298;42.688;23.366;2022-11-25T03:52:55;2.17;;;2.07;;
6529;SDS011;3298;42.688;23.366;2022-11-25T03:55:21;2.70;;;2.40;;
6529;SDS011;3298;42.688;23.366;2022-11-25T03:57:48;2.60;;;2.40;;
6529;SDS011;3298;42.688;23.366;2022-11-25T04:00:15;1.87;;;1.77;;
6529;SDS011;3298;42.688;23.366;2022-11-25T04:02:42;2.13;;;2.03;;
6529;SDS011;3298;42.688;23.366;2022-11-25T04:05:09;2.40;;;2.30;;
6529;SDS011;3298;42.688;23.366;2022-11-25T04:07:36;2.20;;;2.10;;
6529;SDS011;3298;42.688;23.366;2022-11-25T04:10:05;1.53;;;1.53;;
6529;SDS011;3298;42.688;23.366;2022-11-25T04:12:32;1.83;;;1.70;;
6529;SDS011;3298;42.688;23.366;2022-11-25T04:15:11;2.13;;;2.00;;
6529;SDS011;3298;42.688;23.366;2022-11-25T04:17:38;2.83;;;2.13;;
6529;SDS011;3298;42.688;23.366;2022-11-25T04:20:05;2.10;;;1.90;;
6529;SDS011;3298;42.688;23.366;2022-11-25T04:22:32;2.60;;;1.80;;
6529;SDS011;3298;42.688;23.366;2022-11-25T04:24:59;2.53;;;1.60;;
6529;SDS011;3298;42.688;23.366;2022-11-25T04:27:27;2.10;;;1.60;;
6529;SDS011;3298;42.688;23.366;2022-11-25T04:29:54;1.90;;;1.80;;
6529;SDS011;3298;42.688;23.366;2022-11-25T04:32:21;1.90;;;1.80;;
6529;SDS011;3298;42.688;23.366;2022-11-25T04:34:47;1.90;;;1.80;;
6529;SDS011;3298;42.688;23.366;2022-11-25T04:37:14;1.40;;;1.30;;
6529;SDS011;3298;42.688;23.366;2022-11-25T04:39:41;1.73;;;1.63;;
6529;SDS011;3298;42.688;23.366;2022-11-25T04:42:08;1.53;;;1.47;;
6529;SDS011;3298;42.688;23.366;2022-11-25T04:44:54;1.70;;;1.60;;
6529;SDS011;3298;42.688;23.366;2022-11-25T04:47:20;1.37;;;1.33;;
6529;SDS011;3298;42.688;23.366;2022-11-25T04:49:47;1.60;;;1.50;;
6529;SDS011;3298;42.688;23.366;2022-11-25T04:52:14;1.67;;;1.57;;
6529;SDS011;3298;42.688;23.366;2022-11-25T04:54:41;2.07;;;1.97;;
6529;SDS011;3298;42.688;23.366;2022-11-25T04:57:08;1.30;;;1.30;;
6529;SDS011;3298;42.688;23.366;2022-11-25T04:59:37;1.67;;;1.57;;
6529;SDS011;3298;42.688;23.366;2022-11-25T05:02:08;1.47;;;1.47;;
6529;SDS011;3298;42.688;23.366;2022-11-25T05:04:39;2.53;;;1.27;;
6529;SDS011;3298;42.688;23.366;2022-11-25T05:07:06;1.57;;;1.50;;
6529;SDS011;3298;42.688;23.366;2022-11-25T05:09:33;1.70;;;1.57;;
6529;SDS011;3298;42.688;23.366;2022-11-25T05:12:01;3.10;;;1.57;;
6529;SDS011;3298;42.688;23.366;2022-11-25T05:14:28;1.90;;;1.80;;
6529;SDS011;3298;42.688;23.366;2022-11-25T05:16:54;1.77;;;1.67;;
6529;SDS011;3298;42.688;23.366;2022-11-25T05:19:23;2.10;;;2.00;;
6529;SDS011;3298;42.688;23.366;2022-11-25T05:21:49;2.07;;;1.97;;
6529;SDS011;3298;42.688;23.366;2022-11-25T05:24:16;1.83;;;1.73;;
6529;SDS011;3298;42.688;23.366;2022-11-25T05:26:43;1.60;;;1.50;;
6529;SDS011;3298;42.688;23.366;2022-11-25T05:29:10;1.90;;;1.80;;
6529;SDS011;3298;42.688;23.366;2022-11-25T05:31:37;1.50;;;1.50;;
6529;SDS011;3298;42.688;23.366;2022-11-25T05:34:03;2.30;;;2.20;;
6529;SDS011;3298;42.688;23.366;2022-11-25T05:36:32;2.50;;;2.30;;
6529;SDS011;3298;42.688;23.366;2022-11-25T05:38:59;6.17;;;2.37;;
6529;SDS011;3298;42.688;23.366;2022-11-25T05:41:26;2.00;;;1.83;;
6529;SDS011;3298;42.688;23.366;2022-11-25T05:43:53;1.40;;;1.40;;
6529;SDS011;3298;42.688;23.366;2022-11-25T05:46:21;1.73;;;1.63;;
6529;SDS011;3298;42.688;23.366;2022-11-25T05:48:51;1.50;;;1.40;;
6529;SDS011;3298;42.688;23.366;2022-11-25T05:51:19;1.47;;;1.40;;
6529;SDS011;3298;42.688;23.366;2022-11-25T05:53:47;1.73;;;1.63;;
6529;SDS011;3298;42.688;23.366;2022-11-25T05:56:14;2.10;;;1.70;;
6529;SDS011;3298;42.688;23.366;2022-11-25T05:58:41;2.27;;;1.37;;
6529;SDS011;3298;42.688;23.366;2022-11-25T06:01:09;2.30;;;1.23;;
6529;SDS011;3298;42.688;23.366;2022-11-25T06:03:37;1.93;;;1.83;;
6529;SDS011;3298;42.688;23.366;2022-11-25T06:06:04;2.30;;;1.80;;
6529;SDS011;3298;42.688;23.366;2022-11-25T06:08:32;1.97;;;1.80;;
6529;SDS011;3298;42.688;23.366;2022-11-25T06:11:04;1.30;;;1.20;;
6529;SDS011;3298;42.688;23.366;2022-11-25T06:13:31;1.67;;;1.57;;
6529;SDS011;3298;42.688;23.366;2022-11-25T06:15:58;1.50;;;1.40;;
6529;SDS011;3298;42.688;23.366;2022-11-25T06:18:25;2.70;;;1.63;;
6529;SDS011;3298;42.688;23.366;2022-11-25T06:20:55;1.13;;;1.13;;
6529;SDS011;3298;42.688;23.366;2022-11-25T06:23:23;2.03;;;1.83;;
6529;SDS011;3298;42.688;23.366;2022-11-25T06:25:49;2.27;;;1.83;;
6529;SDS011;3298;42.688;23.366;2022-11-25T06:28:18;5.43;;;1.60;;
6529;SDS011;3298;42.688;23.366;2022-11-25T06:30:44;1.67;;;1.57;;
6529;SDS011;3298;42.688;23.366;2022-11-25T06:33:11;1.63;;;1.53;;
6529;SDS011;3298;42.688;23.366;2022-11-25T06:35:38;1.93;;;1.73;;
6529;SDS011;3298;42.688;23.366;2022-11-25T06:38:05;1.80;;;1.70;;
6529;SDS011;3298;42.688;23.366;2022-11-25T06:40:31;6.80;;;2.30;;
6529;SDS011;3298;42.688;23.366;2022-11-25T06:42:58;1.70;;;1.60;;
6529;SDS011;3298;42.688;23.366;2022-11-25T06:45:26;2.27;;;2.03;;
6529;SDS011;3298;42.688;23.366;2022-11-25T06:47:53;2.27;;;2.10;;
6529;SDS011;3298;42.688;23.366;2022-11-25T06:50:20;2.40;;;1.60;;
6529;SDS011;3298;42.688;23.366;2022-11-25T06:52:47;1.93;;;1.83;;
6529;SDS011;3298;42.688;23.366;2022-11-25T06:55:14;3.07;;;1.93;;
6529;SDS011;3298;42.688;23.366;2022-11-25T06:57:41;6.30;;;2.03;;
6529;SDS011;3298;42.688;23.366;2022-11-25T07:00:08;1.97;;;1.87;;
6529;SDS011;3298;42.688;23.366;2022-11-25T07:02:37;2.40;;;2.20;;
6529;SDS011;3298;42.688;23.366;2022-11-25T07:05:04;2.10;;;2.00;;
6529;SDS011;3298;42.688;23.366;2022-11-25T07:07:31;2.10;;;2.00;;
6529;SDS011;3298;42.688;23.366;2022-11-25T07:09:57;2.50;;;2.40;;
6529;SDS011;3298;42.688;23.366;2022-11-25T07:12:24;3.17;;;2.97;;
6529;SDS011;3298;42.688;23.366;2022-11-25T07:14:51;2.53;;;2.33;;
6529;SDS011;3298;42.688;23.366;2022-11-25T07:17:18;6.23;;;2.50;;
6529;SDS011;3298;42.688;23.366;2022-11-25T07:19:46;2.30;;;2.20;;
6529;SDS011;3298;42.688;23.366;2022-11-25T07:22:13;2.83;;;2.63;;
6529;SDS011;3298;42.688;23.366;2022-11-25T07:24:40;2.37;;;2.17;;
6529;SDS011;3298;42.688;23.366;2022-11-25T07:27:06;2.07;;;1.97;;
6529;SDS011;3298;42.688;23.366;2022-11-25T07:29:33;3.50;;;2.40;;
6529;SDS011;3298;42.688;23.366;2022-11-25T07:32:00;4.73;;;3.20;;
6529;SDS011;3298;42.688;23.366;2022-11-25T07:34:27;14.67;;;5.77;;
6529;SDS011;3298;42.688;23.366;2022-11-25T07:36:56;4.10;;;3.70;;
6529;SDS011;3298;42.688;23.366;2022-11-25T07:39:22;8.37;;;4.60;;
6529;SDS011;3298;42.688;23.366;2022-11-25T07:41:49;4.27;;;3.87;;
6529;SDS011;3298;42.688;23.366;2022-11-25T07:44:17;3.47;;;3.17;;
6529;SDS011;3298;42.688;23.366;2022-11-25T07:46:46;3.53;;;3.33;;
6529;SDS011;3298;42.688;23.366;2022-11-25T07:49:14;5.37;;;3.23;;
6529;SDS011;3298;42.688;23.366;2022-11-25T07:51:45;3.20;;;2.90;;
6529;SDS011;3298;42.688;23.366;2022-11-25T07:54:16;4.47;;;2.50;;
6529;SDS011;3298;42.688;23.366;2022-11-25T07:56:43;3.17;;;2.97;;
6529;SDS011;3298;42.688;23.366;2022-11-25T07:59:11;3.00;;;2.70;;
6529;SDS011;3298;42.688;23.366;2022-11-25T08:01:39;4.23;;;2.20;;
6529;SDS011;3298;42.688;23.366;2022-11-25T08:04:07;2.47;;;2.37;;
6529;SDS011;3298;42.688;23.366;2022-11-25T08:06:36;3.60;;;2.93;;
6529;SDS011;3298;42.688;23.366;2022-11-25T08:09:04;2.40;;;2.30;;
6529;SDS011;3298;42.688;23.366;2022-11-25T08:11:33;2.90;;;2.73;;
6529;SDS011;3298;42.688;23.366;2022-11-25T08:14:00;3.53;;;2.70;;
6529;SDS011;3298;42.688;23.366;2022-11-25T08:16:27;2.73;;;2.57;;
6529;SDS011;3298;42.688;23.366;2022-11-25T08:18:56;2.83;;;2.63;;
6529;SDS011;3298;42.688;23.366;2022-11-25T08:21:23;3.13;;;2.80;;
6529;SDS011;3298;42.688;23.366;2022-11-25T08:23:50;3.80;;;2.83;;
6529;SDS011;3298;42.688;23.366;2022-11-25T08:26:18;3.30;;;2.90;;
6529;SDS011;3298;42.688;23.366;2022-11-25T08:28:48;2.70;;;2.50;;
6529;SDS011;3298;42.688;23.366;2022-11-25T08:31:15;3.07;;;2.60;;
6529;SDS011;3298;42.688;23.366;2022-11-25T08:33:44;3.00;;;2.73;;
6529;SDS011;3298;42.688;23.366;2022-11-25T08:36:11;3.03;;;2.83;;
6529;SDS011;3298;42.688;23.366;2022-11-25T08:38:39;2.97;;;2.77;;
6529;SDS011;3298;42.688;23.366;2022-11-25T08:41:08;2.60;;;2.50;;
6529;SDS011;3298;42.688;23.366;2022-11-25T08:43:36;3.87;;;3.57;;
6529;SDS011;3298;42.688;23.366;2022-11-25T08:46:07;3.00;;;2.80;;
6529;SDS011;3298;42.688;23.366;2022-11-25T08:48:36;2.53;;;2.33;;
6529;SDS011;3298;42.688;23.366;2022-11-25T08:51:06;2.93;;;2.23;;
6529;SDS011;3298;42.688;23.366;2022-11-25T08:53:35;4.53;;;2.97;;
6529;SDS011;3298;42.688;23.366;2022-11-25T08:56:03;3.07;;;2.87;;
6529;SDS011;3298;42.688;23.366;2022-11-25T08:58:30;2.40;;;2.20;;
6529;SDS011;3298;42.688;23.366;2022-11-25T09:00:57;2.67;;;2.47;;
6529;SDS011;3298;42.688;23.366;2022-11-25T09:03:25;2.60;;;2.30;;
6529;SDS011;3298;42.688;23.366;2022-11-25T09:05:52;2.60;;;2.50;;
6529;SDS011;3298;42.688;23.366;2022-11-25T09:08:19;3.53;;;3.00;;
6529;SDS011;3298;42.688;23.366;2022-11-25T09:10:46;3.10;;;2.90;;
6529;SDS011;3298;42.688;23.366;2022-11-25T09:13:13;3.70;;;2.90;;
6529;SDS011;3298;42.688;23.366;2022-11-25T09:15:40;2.03;;;1.83;;
6529;SDS011;3298;42.688;23.366;2022-11-25T09:18:07;3.23;;;3.03;;
6529;SDS011;3298;42.688;23.366;2022-11-25T09:20:37;3.03;;;2.63;;
6529;SDS011;3298;42.688;23.366;2022-11-25T09:23:05;3.20;;;2.90;;
6529;SDS011;3298;42.688;23.366;2022-11-25T09:25:33;2.77;;;2.57;;
6529;SDS011;3298;42.688;23.366;2022-11-25T09:28:01;3.90;;;3.50;;
6529;SDS011;3298;42.688;23.366;2022-11-25T09:30:28;3.47;;;3.00;;
6529;SDS011;3298;42.688;23.366;2022-11-25T09:32:55;3.60;;;3.10;;
6529;SDS011;3298;42.688;23.366;2022-11-25T09:35:22;3.63;;;3.33;;
6529;SDS011;3298;42.688;23.366;2022-11-25T09:37:51;2.17;;;1.90;;
6529;SDS011;3298;42.688;23.366;2022-11-25T09:40:18;2.90;;;2.70;;
6529;SDS011;3298;42.688;23.366;2022-11-25T09:42:53;5.23;;;2.53;;
6529;SDS011;3298;42.688;23.366;2022-11-25T09:45:44;3.03;;;2.83;;
6529;SDS011;3298;42.688;23.366;2022-11-25T09:48:39;3.50;;;2.40;;
6529;SDS011;3298;42.688;23.366;2022-11-25T09:51:15;2.67;;;2.47;;
6529;SDS011;3298;42.688;23.366;2022-11-25T09:53:49;2.93;;;2.83;;
6529;SDS011;3298;42.688;23.366;2022-11-25T09:56:21;2.40;;;2.30;;
6529;SDS011;3298;42.688;23.366;2022-11-25T09:58:55;2.50;;;2.30;;
6529;SDS011;3298;42.688;23.366;2022-11-25T10:01:26;2.83;;;2.63;;
6529;SDS011;3298;42.688;23.366;2022-11-25T10:03:57;3.00;;;2.80;;
6529;SDS011;3298;42.688;23.366;2022-11-25T10:06:30;6.37;;;3.17;;
6529;SDS011;3298;42.688;23.366;2022-11-25T10:09:03;3.07;;;2.87;;
6529;SDS011;3298;42.688;23.366;2022-11-25T10:11:42;3.53;;;2.93;;
6529;SDS011;3298;42.688;23.366;2022-11-25T10:14:17;1.93;;;1.83;;
6529;SDS011;3298;42.688;23.366;2022-11-25T10:16:54;6.07;;;2.33;;
6529;SDS011;3298;42.688;23.366;2022-11-25T10:19:34;2.07;;;1.87;;
6529;SDS011;3298;42.688;23.366;2022-11-25T10:22:12;2.37;;;2.20;;
6529;SDS011;3298;42.688;23.366;2022-11-25T10:24:49;3.10;;;2.00;;
6529;SDS011;3298;42.688;23.366;2022-11-25T10:27:18;4.27;;;2.30;;
6529;SDS011;3298;42.688;23.366;2022-11-25T10:29:52;2.07;;;1.97;;
6529;SDS011;3298;42.688;23.366;2022-11-25T10:32:27;2.33;;;1.83;;
6529;SDS011;3298;42.688;23.366;2022-11-25T10:35:01;1.97;;;1.87;;
6529;SDS011;3298;42.688;23.366;2022-11-25T10:37:34;1.80;;;1.73;;
6529;SDS011;3298;42.688;23.366;2022-11-25T10:40:12;2.20;;;2.00;;
6529;SDS011;3298;42.688;23.366;2022-11-25T10:42:41;2.10;;;1.90;;
6529;SDS011;3298;42.688;23.366;2022-11-25T10:45:08;2.07;;;1.97;;
6529;SDS011;3298;42.688;23.366;2022-11-25T10:47:36;2.17;;;1.97;;
6529;SDS011;3298;42.688;23.366;2022-11-25T10:50:26;1.90;;;1.80;;
6529;SDS011;3298;42.688;23.366;2022-11-25T10:53:01;6.57;;;3.13;;
6529;SDS011;3298;42.688;23.366;2022-11-25T10:55:38;2.80;;;2.60;;
6529;SDS011;3298;42.688;23.366;2022-11-25T10:58:24;1.97;;;1.87;;
6529;SDS011;3298;42.688;23.366;2022-11-25T11:01:00;3.03;;;2.83;;
6529;SDS011;3298;42.688;23.366;2022-11-25T11:03:29;2.63;;;2.43;;
6529;SDS011;3298;42.688;23.366;2022-11-25T11:05:56;3.37;;;2.20;;
6529;SDS011;3298;42.688;23.366;2022-11-25T11:08:23;2.27;;;2.13;;
6529;SDS011;3298;42.688;23.366;2022-11-25T11:11:09;2.00;;;1.90;;
6529;SDS011;3298;42.688;23.366;2022-11-25T11:13:42;3.13;;;2.17;;
6529;SDS011;3298;42.688;23.366;2022-11-25T11:16:19;2.93;;;2.30;;
6529;SDS011;3298;42.688;23.366;2022-11-25T11:18:48;4.00;;;2.60;;
6529;SDS011;3298;42.688;23.366;2022-11-25T11:21:20;3.93;;;2.40;;
6529;SDS011;3298;42.688;23.366;2022-11-25T11:23:49;3.83;;;2.77;;
6529;SDS011;3298;42.688;23.366;2022-11-25T11:26:22;5.73;;;3.37;;
6529;SDS011;3298;42.688;23.366;2022-11-25T11:28:55;3.57;;;3.37;;
6529;SDS011;3298;42.688;23.366;2022-11-25T11:31:25;3.17;;;2.80;;
6529;SDS011;3298;42.688;23.366;2022-11-25T11:33:57;4.03;;;3.73;;
6529;SDS011;3298;42.688;23.366;2022-11-25T11:36:41;2.50;;;2.30;;
6529;SDS011;3298;42.688;23.366;2022-11-25T11:39:27;2.93;;;2.10;;
6529;SDS011;3298;42.688;23.366;2022-11-25T11:42:18;1.77;;;1.67;;
6529;SDS011;3298;42.688;23.366;2022-11-25T11:45:00;3.30;;;3.00;;
6529;SDS011;3298;42.688;23.366;2022-11-25T11:47:39;6.17;;;2.83;;
6529;SDS011;3298;42.688;23.366;2022-11-25T11:50:25;4.83;;;2.40;;
6529;SDS011;3298;42.688;23.366;2022-11-25T11:52:57;5.40;;;2.33;;
6529;SDS011;3298;42.688;23.366;2022-11-25T11:55:44;2.50;;;2.00;;
6529;SDS011;3298;42.688;23.366;2022-11-25T11:58:20;2.07;;;1.97;;
6529;SDS011;3298;42.688;23.366;2022-11-25T12:01:02;1.97;;;1.83;;
6529;SDS011;3298;42.688;23.366;2022-11-25T12:03:37;2.67;;;2.17;;
6529;SDS011;3298;42.688;23.366;2022-11-25T12:06:07;2.10;;;2.00;;
6529;SDS011;3298;42.688;23.366;2022-11-25T12:08:39;2.10;;;2.00;;
6529;SDS011;3298;42.688;23.366;2022-11-25T12:11:12;2.20;;;2.00;;
6529;SDS011;3298;42.688;23.366;2022-11-25T12:13:44;2.47;;;2.27;;
6529;SDS011;3298;42.688;23.366;2022-11-25T12:16:16;1.93;;;1.83;;
6529;SDS011;3298;42.688;23.366;2022-11-25T12:18:50;3.10;;;2.90;;
6529;SDS011;3298;42.688;23.366;2022-11-25T12:21:27;3.53;;;3.23;;
6529;SDS011;3298;42.688;23.366;2022-11-25T12:24:02;3.17;;;2.90;;
6529;SDS011;3298;42.688;23.366;2022-11-25T12:26:37;3.27;;;2.73;;
6529;SDS011;3298;42.688;23.366;2022-11-25T12:29:13;5.63;;;2.90;;
6529;SDS011;3298;42.688;23.366;2022-11-25T12:31:48;6.83;;;4.80;;
6529;SDS011;3298;42.688;23.366;2022-11-25T12:34:21;3.23;;;3.03;;
6529;SDS011;3298;42.688;23.366;2022-11-25T12:37:01;3.23;;;2.90;;
6529;SDS011;3298;42.688;23.366;2022-11-25T12:39:37;2.93;;;2.83;;
6529;SDS011;3298;42.688;23.366;2022-11-25T12:42:11;2.60;;;2.50;;
6529;SDS011;3298;42.688;23.366;2022-11-25T12:44:43;3.33;;;2.07;;
6529;SDS011;3298;42.688;23.366;2022-11-25T12:47:18;2.30;;;2.20;;
6529;SDS011;3298;42.688;23.366;2022-11-25T12:49:47;4.83;;;2.50;;
6529;SDS011;3298;42.688;23.366;2022-11-25T12:52:24;4.33;;;2.70;;
6529;SDS011;3298;42.688;23.366;2022-11-25T12:55:11;2.67;;;2.47;;
6529;SDS011;3298;42.688;23.366;2022-11-25T13:00:52;3.17;;;2.87;;
6529;SDS011;3298;42.688;23.366;2022-11-25T13:03:46;4.73;;;3.00;;
6529;SDS011;3298;42.688;23.366;2022-11-25T13:06:38;3.23;;;3.03;;
6529;SDS011;3298;42.688;23.366;2022-11-25T13:09:29;3.83;;;2.90;;
6529;SDS011;3298;42.688;23.366;2022-11-25T13:12:16;3.07;;;1.83;;
6529;SDS011;3298;42.688;23.366;2022-11-25T13:14:56;2.93;;;2.73;;
6529;SDS011;3298;42.688;23.366;2022-11-25T13:17:39;2.33;;;2.23;;
6529;SDS011;3298;42.688;23.366;2022-11-25T13:23:05;3.00;;;2.80;;
6529;SDS011;3298;42.688;23.366;2022-11-25T13:25:35;4.13;;;2.80;;
6529;SDS011;3298;42.688;23.366;2022-11-25T13:28:03;3.27;;;2.93;;
6529;SDS011;3298;42.688;23.366;2022-11-25T13:30:34;2.97;;;2.77;;
6529;SDS011;3298;42.688;23.366;2022-11-25T13:36:04;2.87;;;2.67;;
6529;SDS011;3298;42.688;23.366;2022-11-25T13:38:56;3.27;;;3.07;;
6529;SDS011;3298;42.688;23.366;2022-11-25T13:44:16;3.20;;;2.90;;
6529;SDS011;3298;42.688;23.366;2022-11-25T13:46:46;6.70;;;4.00;;
6529;SDS011;3298;42.688;23.366;2022-11-25T13:49:22;3.40;;;3.20;;
6529;SDS011;3298;42.688;23.366;2022-11-25T13:51:54;4.30;;;3.60;;
6529;SDS011;3298;42.688;23.366;2022-11-25T13:54:26;3.87;;;3.57;;
6529;SDS011;3298;42.688;23.366;2022-11-25T13:56:59;4.10;;;3.23;;
6529;SDS011;3298;42.688;23.366;2022-11-25T13:59:50;6.30;;;3.70;;
6529;SDS011;3298;42.688;23.366;2022-11-25T14:02:38;3.47;;;3.27;;
6529;SDS011;3298;42.688;23.366;2022-11-25T14:08:28;3.63;;;3.40;;
6529;SDS011;3298;42.688;23.366;2022-11-25T14:11:09;3.77;;;3.33;;
6529;SDS011;3298;42.688;23.366;2022-11-25T14:14:00;3.70;;;3.50;;
6529;SDS011;3298;42.688;23.366;2022-11-25T14:16:43;4.13;;;3.73;;
6529;SDS011;3298;42.688;23.366;2022-11-25T14:19:36;4.77;;;4.03;;
6529;SDS011;3298;42.688;23.366;2022-11-25T14:22:18;4.30;;;4.00;;
6529;SDS011;3298;42.688;23.366;2022-11-25T14:25:15;4.70;;;4.40;;
6529;SDS011;3298;42.688;23.366;2022-11-25T14:27:47;4.50;;;4.20;;
6529;SDS011;3298;42.688;23.366;2022-11-25T14:30:16;4.67;;;4.37;;
6529;SDS011;3298;42.688;23.366;2022-11-25T14:32:46;4.63;;;4.33;;
6529;SDS011;3298;42.688;23.366;2022-11-25T14:35:20;5.00;;;4.27;;
6529;SDS011;3298;42.688;23.366;2022-11-25T14:37:51;4.80;;;4.43;;
6529;SDS011;3298;42.688;23.366;2022-11-25T14:40:28;7.27;;;4.87;;
6529;SDS011;3298;42.688;23.366;2022-11-25T14:43:01;4.90;;;4.60;;
6529;SDS011;3298;42.688;23.366;2022-11-25T14:45:31;5.03;;;4.63;;
6529;SDS011;3298;42.688;23.366;2022-11-25T14:48:10;4.07;;;3.73;;
6529;SDS011;3298;42.688;23.366;2022-11-25T14:50:38;4.97;;;4.67;;
6529;SDS011;3298;42.688;23.366;2022-11-25T14:53:05;8.43;;;4.40;;
6529;SDS011;3298;42.688;23.366;2022-11-25T14:55:36;4.67;;;4.37;;
6529;SDS011;3298;42.688;23.366;2022-11-25T14:58:03;5.47;;;5.00;;
6529;SDS011;3298;42.688;23.366;2022-11-25T15:00:30;5.20;;;4.70;;
6529;SDS011;3298;42.688;23.366;2022-11-25T15:02:58;5.20;;;4.90;;
6529;SDS011;3298;42.688;23.366;2022-11-25T15:05:29;6.13;;;5.63;;
6529;SDS011;3298;42.688;23.366;2022-11-25T15:07:59;6.93;;;6.33;;
6529;SDS011;3298;42.688;23.366;2022-11-25T15:10:28;4.97;;;4.47;;
6529;SDS011;3298;42.688;23.366;2022-11-25T15:13:05;5.73;;;5.20;;
6529;SDS011;3298;42.688;23.366;2022-11-25T15:15:38;5.57;;;5.00;;
6529;SDS011;3298;42.688;23.366;2022-11-25T15:18:05;5.63;;;5.13;;
6529;SDS011;3298;42.688;23.366;2022-11-25T15:20:35;4.90;;;4.50;;
6529;SDS011;3298;42.688;23.366;2022-11-25T15:23:02;5.60;;;4.73;;
6529;SDS011;3298;42.688;23.366;2022-11-25T15:25:29;8.07;;;6.10;;
6529;SDS011;3298;42.688;23.366;2022-11-25T15:27:56;5.90;;;5.40;;
6529;SDS011;3298;42.688;23.366;2022-11-25T15:30:25;5.63;;;5.13;;
6529;SDS011;3298;42.688;23.366;2022-11-25T15:32:54;6.20;;;5.70;;
6529;SDS011;3298;42.688;23.366;2022-11-25T15:35:23;7.87;;;6.27;;